createdAt,value
2019-05-13T00:00:50.164Z,82.75
2019-05-13T00:03:20.070Z,83.26
2019-05-13T00:05:49.918Z,83.58
2019-05-13T00:08:21.731Z,83.65
2019-05-13T00:10:51.260Z,83.38
2019-05-13T00:13:21.101Z,83.99
2019-05-13T00:15:50.866Z,84.27
2019-05-13T00:18:20.571Z,84.24
2019-05-13T00:20:50.312Z,84.24
2019-05-13T00:23:20.214Z,84.36
2019-05-13T00:25:50.101Z,83.94
2019-05-13T00:28:19.999Z,83.95
2019-05-13T00:30:50.043Z,83.65
2019-05-13T00:33:19.803Z,83.56
2019-05-13T00:35:49.638Z,83.63
2019-05-13T00:38:19.547Z,83.66
2019-05-13T00:40:49.530Z,83.88
2019-05-13T00:43:19.474Z,83.58
2019-05-13T00:45:49.476Z,83.70
2019-05-13T00:48:19.273Z,83.61
2019-05-13T00:50:49.084Z,83.87
2019-05-13T00:53:18.996Z,83.54
2019-05-13T00:55:48.831Z,84.22
2019-05-13T00:58:18.615Z,83.96
2019-05-13T01:00:48.484Z,83.95
2019-05-13T01:03:18.421Z,84.08
2019-05-13T01:05:48.291Z,84.12
2019-05-13T01:08:18.175Z,84.27
2019-05-13T01:10:48.028Z,84.39
2019-05-13T01:13:17.773Z,84.33
2019-05-13T01:15:47.612Z,84.53
2019-05-13T01:18:17.373Z,84.76
2019-05-13T01:20:47.295Z,84.87
2019-05-13T01:23:17.098Z,85.18
2019-05-13T01:25:46.832Z,84.97
2019-05-13T01:28:16.603Z,85.39
2019-05-13T01:30:46.436Z,85.21
2019-05-13T01:33:16.242Z,85.45
2019-05-13T01:35:46.047Z,85.65
2019-05-13T01:38:15.856Z,85.58
2019-05-13T01:40:45.768Z,85.83
2019-05-13T01:43:15.652Z,85.70
2019-05-13T01:45:45.464Z,85.91
2019-05-13T01:48:15.228Z,85.67
2019-05-13T01:50:45.004Z,85.78
2019-05-13T01:53:14.887Z,85.73
2019-05-13T01:55:44.633Z,85.36
2019-05-13T01:58:14.776Z,85.30
2019-05-13T02:00:44.862Z,85.19
2019-05-13T02:03:14.809Z,85.18
2019-05-13T02:05:44.616Z,85.40
2019-05-13T02:08:14.642Z,85.14
2019-05-13T02:10:55.056Z,85.03
2019-05-13T02:13:26.353Z,85.18
2019-05-13T02:15:56.874Z,85.61
2019-05-13T02:18:26.805Z,85.73
2019-05-13T02:20:56.767Z,86.08
2019-05-13T02:23:26.594Z,85.97
2019-05-13T02:25:56.417Z,85.93
2019-05-13T02:28:26.209Z,85.86
2019-05-13T02:30:57.022Z,85.77
2019-05-13T02:33:27.065Z,85.69
2019-05-13T02:35:56.917Z,85.84
2019-05-13T02:38:30.721Z,85.90
2019-05-13T02:40:58.090Z,86.00
2019-05-13T02:43:27.911Z,86.12
2019-05-13T02:45:57.831Z,86.39
2019-05-13T02:48:27.600Z,86.66
2019-05-13T02:50:57.455Z,86.60
2019-05-13T02:53:27.175Z,86.88
2019-05-13T02:55:57.017Z,87.06
2019-05-13T02:58:26.845Z,87.44
2019-05-13T03:00:56.649Z,87.77
2019-05-13T03:03:26.487Z,88.18
2019-05-13T03:05:56.271Z,88.29
2019-05-13T03:08:39.375Z,88.48
2019-05-13T03:10:57.557Z,88.49
2019-05-13T03:13:32.566Z,88.48
2019-05-13T03:16:09.041Z,88.63
2019-05-13T03:18:38.939Z,88.78
2019-05-13T03:21:12.405Z,89.06
2019-05-13T03:23:43.656Z,89.10
2019-05-13T03:26:13.003Z,89.53
2019-05-13T03:28:43.954Z,89.35
2019-05-13T03:31:16.930Z,89.13
2019-05-13T03:33:47.370Z,89.36
2019-05-13T03:36:17.896Z,89.59
2019-05-13T03:39:01.553Z,89.65
2019-05-13T03:41:22.849Z,89.42
2019-05-13T03:43:56.003Z,89.18
2019-05-13T03:46:26.886Z,89.24
2019-05-13T03:49:02.118Z,89.27
2019-05-13T03:51:32.700Z,89.25
2019-05-13T03:54:03.258Z,89.37
2019-05-13T03:56:33.817Z,89.55
2019-05-13T03:59:03.719Z,89.47
2019-05-13T04:01:33.717Z,88.99
2019-05-13T04:04:03.657Z,89.35
2019-05-13T04:06:33.601Z,89.69
2019-05-13T04:09:21.059Z,89.96
2019-05-13T04:11:37.515Z,90.08
2019-05-13T04:14:07.485Z,90.30
2019-05-13T04:16:37.489Z,90.36
2019-05-13T04:19:07.586Z,90.02
2019-05-13T04:21:37.757Z,90.06
2019-05-13T04:24:07.645Z,90.14
2019-05-13T04:26:37.452Z,87.33
2019-05-13T04:29:07.360Z,82.76
2019-05-13T04:31:37.306Z,77.76
2019-05-13T04:34:07.169Z,75.95
2019-05-13T04:36:37.053Z,74.97
2019-05-13T04:39:07.473Z,75.14
2019-05-13T04:41:37.418Z,76.52
2019-05-13T04:44:07.373Z,80.22
2019-05-13T04:46:37.269Z,82.29
2019-05-13T04:49:07.185Z,83.35
2019-05-13T04:51:37.160Z,84.58
2019-05-13T04:54:06.996Z,84.85
2019-05-13T04:56:36.884Z,84.78
2019-05-13T04:59:06.731Z,84.14
2019-05-13T05:02:13.001Z,84.86
2019-05-13T05:05:22.251Z,84.81
2019-05-13T05:08:22.490Z,83.91
2019-05-13T05:11:31.891Z,84.56
2019-05-13T05:14:32.478Z,83.35
2019-05-13T05:17:25.341Z,82.52
2019-05-13T05:20:04.193Z,83.73
2019-05-13T05:22:52.140Z,82.32
2019-05-13T05:25:32.302Z,82.52
2019-05-13T05:28:11.204Z,82.85
2019-05-13T05:31:02.345Z,82.49
2019-05-13T05:33:57.849Z,82.02
2019-05-13T05:36:52.671Z,81.22
2019-05-13T05:39:27.288Z,81.00
2019-05-13T05:41:58.714Z,80.77
2019-05-13T05:44:32.484Z,78.51
2019-05-13T05:47:03.524Z,78.98
2019-05-13T05:49:33.545Z,77.61
2019-05-13T05:52:06.184Z,78.12
2019-05-13T05:54:38.604Z,77.60
2019-05-13T05:57:11.898Z,77.61
2019-05-13T05:59:42.635Z,76.23
2019-05-13T06:02:12.985Z,76.33
2019-05-13T06:04:44.244Z,76.91
2019-05-13T06:07:14.262Z,75.79
2019-05-13T06:09:44.142Z,74.82
2019-05-13T06:12:14.143Z,75.17
2019-05-13T06:14:44.515Z,73.73
2019-05-13T06:17:14.413Z,73.27
2019-05-13T06:19:44.486Z,70.92
2019-05-13T06:22:14.555Z,68.29
2019-05-13T06:24:44.342Z,66.38
2019-05-13T06:27:18.391Z,65.89
2019-05-13T06:29:52.854Z,64.84
2019-05-13T06:32:26.602Z,63.28
2019-05-13T06:34:56.718Z,62.01
2019-05-13T06:37:26.760Z,61.85
2019-05-13T06:39:56.926Z,59.15
2019-05-13T06:42:26.842Z,56.54
2019-05-13T06:44:56.617Z,59.39
2019-05-13T06:47:26.466Z,57.38
2019-05-13T06:49:56.345Z,57.63
2019-05-13T06:52:26.396Z,57.50
2019-05-13T06:54:56.140Z,57.00
2019-05-13T06:57:25.901Z,58.12
2019-05-13T06:59:55.713Z,60.05
2019-05-13T07:02:25.465Z,59.16
2019-05-13T07:04:55.323Z,59.12
2019-05-13T07:07:25.064Z,59.95
2019-05-13T07:09:54.831Z,60.36
2019-05-13T07:12:24.716Z,59.29
2019-05-13T07:14:54.610Z,59.52
2019-05-13T07:17:24.334Z,59.14
2019-05-13T07:19:54.223Z,60.53
2019-05-13T07:22:23.970Z,60.06
2019-05-13T07:24:53.747Z,58.64
2019-05-13T07:27:23.492Z,59.90
2019-05-13T07:29:55.491Z,61.42
2019-05-13T07:32:24.770Z,61.66
2019-05-13T07:34:54.672Z,60.59
2019-05-13T07:37:24.460Z,58.57
2019-05-13T07:39:54.356Z,58.59
2019-05-13T07:42:24.073Z,57.90
2019-05-13T07:44:53.843Z,58.34
2019-05-13T07:47:23.608Z,57.45
2019-05-13T07:49:53.283Z,58.24
2019-05-13T07:52:23.002Z,58.41
2019-05-13T07:54:52.655Z,54.67
2019-05-13T07:57:22.431Z,55.01
2019-05-13T07:59:52.531Z,55.16
2019-05-13T08:02:22.262Z,54.05
2019-05-13T08:04:53.120Z,53.13
2019-05-13T08:07:23.946Z,52.32
2019-05-13T08:09:56.091Z,52.80
2019-05-13T08:12:25.012Z,51.69
2019-05-13T08:14:54.693Z,52.82
2019-05-13T08:17:24.728Z,52.30
2019-05-13T08:19:54.398Z,51.27
2019-05-13T08:22:24.243Z,49.71
2019-05-13T08:24:54.554Z,49.31
2019-05-13T08:27:30.307Z,48.70
2019-05-13T08:29:55.881Z,48.19
2019-05-13T08:32:25.564Z,48.24
2019-05-13T08:35:01.229Z,47.29
2019-05-13T08:37:26.682Z,46.60
2019-05-13T08:39:58.018Z,43.29
2019-05-13T08:42:27.772Z,44.56
2019-05-13T08:44:57.442Z,43.98
2019-05-13T08:47:27.345Z,44.63
2019-05-13T08:50:00.498Z,40.87
2019-05-13T08:52:28.479Z,42.18
2019-05-13T08:54:58.324Z,40.68
2019-05-13T08:57:28.115Z,40.14
2019-05-13T08:59:57.923Z,42.74
2019-05-13T09:02:27.683Z,40.23
2019-05-13T09:04:57.378Z,42.36
2019-05-13T09:07:27.131Z,40.10
2019-05-13T09:09:56.935Z,38.46
2019-05-13T09:12:31.953Z,41.10
2019-05-13T09:14:58.000Z,41.30
2019-05-13T09:17:27.670Z,41.86
2019-05-13T09:19:57.354Z,41.81
2019-05-13T09:22:27.126Z,38.27
2019-05-13T09:24:56.861Z,39.26
2019-05-13T09:27:26.573Z,39.93
2019-05-13T09:29:56.239Z,40.90
2019-05-13T09:32:26.029Z,40.91
2019-05-13T09:34:55.724Z,41.66
2019-05-13T09:37:25.432Z,40.38
2019-05-13T09:39:55.118Z,38.20
2019-05-13T09:42:24.782Z,40.61
2019-05-13T09:44:54.491Z,35.71
2019-05-13T09:47:28.221Z,37.24
2019-05-13T09:49:55.624Z,32.57
2019-05-13T09:52:25.365Z,34.56
2019-05-13T09:54:55.061Z,35.42
2019-05-13T09:57:24.724Z,37.38
2019-05-13T09:59:54.459Z,38.85
2019-05-13T10:02:24.142Z,37.93
2019-05-13T10:04:53.841Z,36.70
2019-05-13T10:07:23.560Z,39.88
2019-05-13T10:09:53.325Z,39.37
2019-05-13T10:12:24.405Z,36.72
2019-05-13T10:14:54.450Z,38.95
2019-05-13T10:17:24.132Z,38.44
2019-05-13T10:19:53.842Z,40.20
2019-05-13T10:22:23.730Z,42.94
2019-05-13T10:24:53.526Z,40.49
2019-05-13T10:27:24.589Z,39.74
2019-05-13T10:29:54.599Z,39.74
2019-05-13T10:32:24.292Z,41.02
2019-05-13T10:34:54.596Z,40.21
2019-05-13T10:37:24.482Z,41.23
2019-05-13T10:39:54.579Z,38.61
2019-05-13T10:42:24.452Z,38.03
2019-05-13T10:44:54.304Z,38.70
2019-05-13T10:47:24.023Z,36.86
2019-05-13T10:49:53.717Z,39.65
2019-05-13T10:52:23.432Z,36.68
2019-05-13T10:54:53.161Z,38.55
2019-05-13T10:57:22.805Z,39.47
2019-05-13T10:59:52.943Z,39.73
2019-05-13T11:02:22.707Z,40.20
2019-05-13T11:04:52.764Z,39.37
2019-05-13T11:07:23.532Z,38.12
2019-05-13T11:09:53.303Z,39.18
2019-05-13T11:12:27.996Z,37.71
2019-05-13T11:14:55.444Z,37.58
2019-05-13T11:17:30.908Z,37.72
2019-05-13T11:19:56.821Z,38.01
2019-05-13T11:22:26.500Z,38.38
2019-05-13T11:24:56.192Z,37.43
2019-05-13T11:27:26.017Z,37.32
2019-05-13T11:29:55.695Z,39.23
2019-05-13T11:32:25.454Z,36.60
2019-05-13T11:34:55.206Z,37.01
2019-05-13T11:37:24.911Z,38.31
2019-05-13T11:39:54.669Z,36.81
2019-05-13T11:42:24.355Z,38.39
2019-05-13T11:44:54.220Z,37.16
2019-05-13T11:47:23.887Z,36.66
2019-05-13T11:49:53.581Z,37.15
2019-05-13T11:52:23.254Z,38.70
2019-05-13T11:54:53.768Z,37.46
2019-05-13T11:57:25.295Z,37.23
2019-05-13T11:59:55.021Z,37.73
2019-05-13T12:02:24.689Z,38.07
2019-05-13T12:04:54.438Z,37.68
2019-05-13T12:07:25.252Z,37.59
2019-05-13T12:09:54.993Z,37.42
2019-05-13T12:12:30.528Z,35.83
2019-05-13T12:15:22.244Z,36.54
2019-05-13T12:17:27.857Z,37.87
2019-05-13T12:19:57.531Z,41.29
2019-05-13T12:22:27.245Z,36.65
2019-05-13T12:24:57.025Z,38.92
2019-05-13T12:27:26.687Z,36.87
2019-05-13T12:29:56.386Z,35.37
2019-05-13T12:32:26.097Z,35.88
2019-05-13T12:34:55.769Z,36.01
2019-05-13T12:37:25.455Z,33.80
2019-05-13T12:39:55.153Z,37.67
2019-05-13T12:42:24.823Z,37.76
2019-05-13T12:45:09.430Z,38.23
2019-05-13T12:47:25.919Z,35.96
2019-05-13T12:49:55.662Z,36.80
2019-05-13T12:52:25.426Z,38.24
2019-05-13T12:54:55.421Z,37.94
2019-05-13T12:57:25.147Z,37.13
2019-05-13T12:59:54.844Z,34.85
2019-05-13T13:02:24.597Z,34.06
2019-05-13T13:05:10.814Z,37.49
2019-05-13T13:07:25.842Z,38.89
2019-05-13T13:09:55.693Z,38.31
2019-05-13T13:12:34.138Z,38.19
2019-05-13T13:14:56.874Z,37.42
2019-05-13T13:17:26.597Z,38.41
2019-05-13T13:20:04.754Z,38.99
2019-05-13T13:22:27.792Z,36.43
2019-05-13T13:24:57.869Z,37.14
2019-05-13T13:27:57.845Z,38.88
2019-05-13T13:30:04.293Z,39.07
2019-05-13T13:32:33.100Z,39.15
2019-05-13T13:35:03.634Z,38.50
2019-05-13T13:37:35.214Z,38.32
2019-05-13T13:40:06.829Z,38.58
2019-05-13T13:42:36.538Z,37.84
2019-05-13T13:45:07.135Z,37.51
2019-05-13T13:47:36.871Z,38.33
2019-05-13T13:50:07.476Z,38.17
2019-05-13T13:52:37.198Z,36.27
2019-05-13T13:57:38.413Z,37.54
2019-05-13T14:00:26.589Z,37.32
2019-05-13T14:02:43.199Z,38.15
2019-05-13T14:05:12.701Z,39.37
2019-05-13T14:07:09.298Z,38.54
2019-05-13T14:07:42.770Z,38.03
2019-05-13T14:10:12.798Z,37.94
2019-05-13T14:12:42.571Z,39.02
2019-05-13T14:15:13.101Z,39.25
2019-05-13T14:17:42.793Z,40.17
2019-05-13T14:20:13.328Z,39.63
2019-05-13T14:22:43.030Z,40.26
2019-05-13T14:25:13.321Z,42.13
2019-05-13T14:27:43.128Z,40.93
2019-05-13T14:30:13.055Z,39.51
2019-05-13T14:32:42.783Z,41.90
2019-05-13T14:35:13.120Z,42.97
2019-05-13T14:37:42.841Z,41.74
2019-05-13T14:40:14.543Z,43.42
2019-05-13T14:42:46.137Z,40.60
2019-05-13T14:45:21.355Z,39.02
2019-05-13T14:47:55.660Z,42.00
2019-05-13T14:50:25.479Z,37.27
2019-05-13T14:52:55.335Z,38.39
2019-05-13T14:55:25.306Z,39.85
2019-05-13T14:57:55.124Z,40.05
2019-05-13T15:00:25.427Z,42.26
2019-05-13T15:02:55.230Z,42.40
2019-05-13T15:05:25.077Z,40.78
2019-05-13T15:08:01.323Z,41.46
2019-05-13T15:10:31.574Z,41.34
2019-05-13T15:13:02.989Z,38.58
2019-05-13T15:15:33.125Z,39.19
2019-05-13T15:18:02.932Z,40.48
2019-05-13T15:20:33.271Z,41.28
2019-05-13T15:23:03.021Z,40.28
2019-05-13T15:25:33.030Z,43.09
2019-05-13T15:28:03.024Z,42.77
2019-05-13T15:30:33.073Z,42.75
2019-05-13T15:33:02.808Z,41.08
2019-05-13T15:35:32.637Z,42.03
2019-05-13T15:38:02.419Z,42.92
2019-05-13T15:40:32.505Z,40.82
2019-05-13T15:43:03.478Z,39.71
2019-05-13T15:45:33.272Z,40.00
2019-05-13T15:48:03.018Z,41.25
2019-05-13T15:50:32.835Z,39.99
2019-05-13T15:53:03.014Z,38.33
2019-05-13T15:55:32.869Z,40.31
2019-05-13T15:58:02.719Z,36.37
2019-05-13T16:00:32.603Z,38.46
2019-05-13T16:03:02.530Z,39.64
2019-05-13T16:05:32.300Z,39.68
2019-05-13T16:08:13.375Z,39.76
2019-05-13T16:10:43.225Z,38.88
2019-05-13T16:13:12.969Z,40.15
2019-05-13T16:15:42.795Z,42.33
2019-05-13T16:18:12.632Z,43.40
2019-05-13T16:20:45.065Z,44.43
2019-05-13T16:23:13.897Z,43.14
2019-05-13T16:25:43.720Z,45.95
2019-05-13T16:28:13.569Z,47.08
2019-05-13T16:30:43.455Z,45.79
2019-05-13T16:33:13.488Z,47.22
2019-05-13T16:35:43.347Z,47.69
2019-05-13T16:38:13.116Z,47.98
2019-05-13T16:40:43.757Z,49.73
2019-05-13T16:43:13.546Z,49.84
2019-05-13T16:45:43.442Z,46.99
2019-05-13T16:48:13.344Z,46.50
2019-05-13T16:50:43.066Z,46.57
2019-05-13T16:53:12.916Z,46.47
2019-05-13T16:55:42.986Z,45.12
2019-05-13T16:58:12.802Z,44.67
2019-05-13T17:00:42.722Z,44.57
2019-05-13T17:03:12.483Z,45.80
2019-05-13T17:05:44.008Z,45.42
2019-05-13T17:08:13.727Z,45.24
2019-05-13T17:10:43.571Z,45.70
2019-05-13T17:13:13.431Z,44.17
2019-05-13T17:15:43.376Z,45.55
2019-05-13T17:18:15.389Z,46.87
2019-05-13T17:20:44.743Z,46.40
2019-05-13T17:23:15.804Z,46.39
2019-05-13T17:25:45.732Z,46.25
2019-05-13T17:28:15.621Z,46.68
2019-05-13T17:30:45.501Z,44.59
2019-05-13T17:33:15.331Z,44.26
2019-05-13T17:35:45.155Z,44.47
2019-05-13T17:38:15.061Z,45.77
2019-05-13T17:40:49.567Z,45.83
2019-05-13T17:43:16.531Z,46.17
2019-05-13T17:45:46.235Z,46.58
2019-05-13T17:48:28.428Z,46.76
2019-05-13T17:50:47.839Z,46.95
2019-05-13T17:53:17.705Z,47.14
2019-05-13T17:55:47.488Z,47.25
2019-05-13T17:58:17.387Z,48.49
2019-05-13T18:00:47.176Z,48.79
2019-05-13T18:03:16.859Z,48.24
2019-05-13T18:05:46.700Z,48.13
2019-05-13T18:08:16.605Z,48.18
2019-05-13T18:10:46.526Z,48.43
2019-05-13T18:13:16.432Z,48.49
2019-05-13T18:15:47.865Z,48.93
2019-05-13T18:18:17.693Z,48.58
2019-05-13T18:20:47.396Z,48.88
2019-05-13T18:23:17.067Z,49.04
2019-05-13T18:25:46.841Z,49.23
2019-05-13T18:28:27.724Z,49.95
2019-05-13T18:30:48.172Z,49.96
2019-05-13T18:33:17.829Z,50.36
2019-05-13T18:35:47.585Z,51.03
2019-05-13T18:38:17.267Z,50.47
2019-05-13T18:40:47.099Z,50.69
2019-05-13T18:43:16.864Z,49.85
2019-05-13T18:45:46.622Z,49.88
2019-05-13T18:48:16.307Z,50.23
2019-05-13T18:50:45.993Z,50.40
2019-05-13T18:53:15.722Z,51.64
2019-05-13T18:55:45.652Z,52.04
2019-05-13T18:58:15.310Z,51.73
2019-05-13T19:00:45.012Z,52.60
2019-05-13T19:03:14.819Z,52.96
2019-05-13T19:05:48.525Z,53.41
2019-05-13T19:08:18.257Z,53.24
2019-05-13T19:10:52.054Z,53.53
2019-05-13T19:13:21.805Z,54.49
2019-05-13T19:15:51.910Z,54.26
2019-05-13T19:18:21.592Z,54.35
2019-05-13T19:20:51.474Z,54.76
2019-05-13T19:23:21.262Z,55.13
2019-05-13T19:25:56.923Z,55.27
2019-05-13T19:28:31.670Z,55.63
2019-05-13T19:31:03.775Z,55.77
2019-05-13T19:33:35.835Z,55.99
2019-05-13T19:36:07.916Z,56.02
2019-05-13T19:38:37.893Z,56.30
2019-05-13T19:41:11.839Z,56.54
2019-05-13T19:43:42.145Z,57.79
2019-05-13T19:46:13.209Z,57.36
2019-05-13T19:48:42.901Z,58.12
2019-05-13T19:51:13.533Z,58.94
2019-05-13T19:53:44.979Z,59.21
2019-05-13T19:56:15.090Z,59.83
2019-05-13T19:58:45.303Z,60.69
2019-05-13T20:01:16.083Z,60.60
2019-05-13T20:03:45.821Z,61.20
2019-05-13T20:06:23.531Z,61.84
2019-05-13T20:08:53.383Z,62.17
2019-05-13T20:11:23.505Z,62.85
2019-05-13T20:13:53.424Z,63.13
2019-05-13T20:16:23.485Z,63.61
2019-05-13T20:18:53.327Z,64.41
2019-05-13T20:21:23.324Z,64.53
2019-05-13T20:23:53.198Z,64.65
2019-05-13T20:26:22.891Z,65.01
2019-05-13T20:28:58.017Z,65.51
2019-05-13T20:31:27.684Z,66.27
2019-05-13T20:33:57.357Z,66.01
2019-05-13T20:36:27.056Z,66.07
2019-05-13T20:38:58.695Z,66.31
2019-05-13T20:41:28.386Z,66.22
2019-05-13T20:43:58.105Z,66.34
2019-05-13T20:46:27.763Z,66.95
2019-05-13T20:48:58.062Z,67.20
2019-05-13T20:51:27.821Z,67.37
2019-05-13T20:53:57.520Z,67.64
2019-05-13T20:56:27.257Z,67.73
2019-05-13T20:58:56.933Z,68.03
2019-05-13T21:01:26.590Z,68.18
2019-05-13T21:03:56.419Z,67.82
2019-05-13T21:06:44.640Z,68.42
2019-05-13T21:09:17.015Z,69.25
2019-05-13T21:11:45.824Z,69.31
2019-05-13T21:14:15.585Z,68.90
2019-05-13T21:16:45.242Z,68.70
2019-05-13T21:19:14.930Z,69.14
2019-05-13T21:21:44.601Z,69.09
2019-05-13T21:24:14.684Z,69.57
2019-05-13T21:26:44.461Z,70.69
2019-05-13T21:29:14.129Z,71.94
2019-05-13T21:31:43.852Z,71.78
2019-05-13T21:34:13.557Z,72.00
2019-05-13T21:36:43.680Z,72.05
2019-05-13T21:39:13.394Z,72.19
2019-05-13T21:41:43.067Z,71.93
2019-05-13T21:44:13.000Z,72.98
2019-05-13T21:46:42.684Z,73.33
2019-05-13T21:49:12.408Z,73.29
2019-05-13T21:51:42.069Z,73.12
2019-05-13T21:54:12.015Z,73.21
2019-05-13T21:56:42.652Z,73.25
2019-05-13T21:59:12.583Z,72.78
2019-05-13T22:01:42.499Z,73.54
2019-05-13T22:04:13.074Z,74.27
2019-05-13T22:06:42.768Z,74.12
2019-05-13T22:09:13.214Z,74.19
2019-05-13T22:11:42.874Z,73.84
2019-05-13T22:14:12.632Z,74.63
2019-05-13T22:16:42.551Z,75.34
2019-05-13T22:19:12.470Z,75.18
2019-05-13T22:21:42.518Z,75.95
2019-05-13T22:24:12.330Z,75.72
2019-05-13T22:26:42.242Z,76.84
2019-05-13T22:29:12.101Z,77.33
2019-05-13T22:31:42.399Z,76.75
2019-05-13T22:34:12.317Z,78.34
2019-05-13T22:36:41.967Z,78.30
2019-05-13T22:39:11.693Z,78.92
2019-05-13T22:41:42.148Z,79.25
2019-05-13T22:44:12.130Z,80.10
2019-05-13T22:46:41.832Z,79.99
2019-05-13T22:49:11.797Z,79.80
2019-05-13T22:51:41.675Z,79.93
2019-05-13T22:54:12.005Z,79.71
2019-05-13T22:56:41.752Z,79.32
2019-05-13T22:59:12.228Z,79.85
2019-05-13T23:01:42.211Z,80.76
2019-05-13T23:04:11.907Z,80.90
2019-05-13T23:06:41.618Z,80.41
2019-05-13T23:09:12.492Z,80.62
2019-05-13T23:11:42.371Z,80.52
2019-05-13T23:14:13.447Z,81.11
2019-05-13T23:16:43.470Z,80.47
2019-05-13T23:19:13.244Z,80.04
2019-05-13T23:21:42.913Z,81.60
2019-05-13T23:24:12.589Z,82.54
2019-05-13T23:26:42.459Z,82.40
2019-05-13T23:29:12.143Z,83.30
2019-05-13T23:31:41.802Z,83.97
2019-05-13T23:34:12.139Z,84.00
2019-05-13T23:36:42.301Z,83.71
2019-05-13T23:39:12.279Z,83.18
2019-05-13T23:41:42.015Z,83.39
2019-05-13T23:44:24.091Z,82.30
2019-05-13T23:49:32.231Z,83.59
2019-05-13T23:52:02.569Z,83.16
2019-05-13T23:54:32.413Z,84.65
2019-05-13T23:57:02.216Z,85.10
2019-05-13T23:59:31.979Z,83.36
